createdAt,value
2022-12-04T00:01:21.440Z,35.50
2022-12-04T00:03:48.617Z,32.47
2022-12-04T00:06:18.805Z,38.53
2022-12-04T00:08:47.850Z,41.05
2022-12-04T00:11:22.175Z,40.53
2022-12-04T00:13:49.594Z,35.63
2022-12-04T00:16:20.979Z,35.83
2022-12-04T00:18:48.129Z,42.65
2022-12-04T00:21:17.732Z,39.90
2022-12-04T00:23:45.385Z,39.25
2022-12-04T00:26:15.811Z,39.00
2022-12-04T00:28:43.992Z,41.73
2022-12-04T00:31:13.957Z,37.70
2022-12-04T00:33:41.263Z,35.78
2022-12-04T00:36:11.689Z,42.05
2022-12-04T00:38:39.762Z,42.53
2022-12-04T00:41:11.456Z,43.97
2022-12-04T00:43:38.669Z,38.15
2022-12-04T00:46:06.363Z,44.35
2022-12-04T00:48:33.461Z,38.83
2022-12-04T00:51:16.134Z,43.45
2022-12-04T00:53:43.378Z,40.90
2022-12-04T00:56:13.772Z,38.78
2022-12-04T00:58:40.747Z,43.03
2022-12-04T01:01:17.853Z,41.10
2022-12-04T01:03:45.758Z,39.33
2022-12-04T01:06:27.090Z,40.07
2022-12-04T01:08:55.156Z,37.38
2022-12-04T01:11:23.742Z,42.65
2022-12-04T01:13:51.335Z,42.35
2022-12-04T01:16:33.750Z,42.13
2022-12-04T01:19:01.442Z,38.80
2022-12-04T01:21:28.848Z,37.50
2022-12-04T01:23:55.927Z,48.50
2022-12-04T01:26:23.492Z,42.88
2022-12-04T01:28:50.696Z,35.17
2022-12-04T01:31:19.882Z,42.13
2022-12-04T01:33:47.993Z,34.97
2022-12-04T01:36:17.660Z,37.75
2022-12-04T01:38:45.373Z,39.03
2022-12-04T01:41:14.762Z,41.83
2022-12-04T01:43:42.727Z,43.97
2022-12-04T01:46:10.595Z,39.35
2022-12-04T01:48:46.873Z,42.13
2022-12-04T01:51:40.117Z,39.42
2022-12-04T01:54:12.200Z,36.85
2022-12-04T01:56:47.246Z,42.73
2022-12-04T01:59:17.615Z,41.10
2022-12-04T02:01:54.285Z,44.72
2022-12-04T02:04:21.677Z,37.67
2022-12-04T02:06:48.819Z,41.92
2022-12-04T02:09:19.325Z,43.90
2022-12-04T02:12:18.972Z,45.33
2022-12-04T02:15:12.195Z,35.03
2022-12-04T02:18:27.268Z,43.45
2022-12-04T02:21:03.215Z,41.53
2022-12-04T02:23:36.175Z,40.47
2022-12-04T02:26:38.294Z,39.45
2022-12-04T02:29:38.159Z,41.20
2022-12-04T02:32:12.771Z,38.13
2022-12-04T02:34:44.002Z,45.47
2022-12-04T02:37:30.562Z,39.93
2022-12-04T02:40:10.426Z,39.20
2022-12-04T02:42:45.957Z,45.50
2022-12-04T02:45:19.912Z,43.78
2022-12-04T02:47:47.522Z,42.30
2022-12-04T02:50:19.879Z,40.77
2022-12-04T02:52:56.041Z,43.33
2022-12-04T02:55:46.231Z,46.63
2022-12-04T02:58:23.084Z,40.70
2022-12-04T03:00:52.101Z,42.95
2022-12-04T03:03:25.444Z,45.13
2022-12-04T03:05:52.169Z,40.13
2022-12-04T03:08:24.517Z,38.45
2022-12-04T03:10:55.802Z,49.75
2022-12-04T03:13:47.868Z,38.90
2022-12-04T03:16:28.389Z,44.23
2022-12-04T03:19:01.938Z,44.20
2022-12-04T03:21:33.479Z,42.35
2022-12-04T03:24:12.597Z,48.33
2022-12-04T03:26:47.166Z,46.45
2022-12-04T03:29:21.411Z,43.27
2022-12-04T03:31:55.904Z,43.03
2022-12-04T03:34:35.565Z,39.00
2022-12-04T03:37:12.377Z,40.97
2022-12-04T03:40:03.675Z,44.47
2022-12-04T03:42:50.333Z,43.17
2022-12-04T03:45:23.233Z,36.20
2022-12-04T03:48:22.633Z,39.22
2022-12-04T03:51:02.646Z,38.92
2022-12-04T03:53:40.151Z,45.08
2022-12-04T03:56:14.206Z,42.53
2022-12-04T03:58:48.178Z,40.42
2022-12-04T04:01:20.555Z,47.03
2022-12-04T04:03:51.768Z,38.20
2022-12-04T04:06:38.131Z,43.15
2022-12-04T04:09:13.279Z,41.30
2022-12-04T04:12:11.438Z,41.08
2022-12-04T04:15:21.908Z,48.25
2022-12-04T04:18:08.877Z,46.65
2022-12-04T04:21:03.744Z,37.67
2022-12-04T04:23:56.573Z,44.90
2022-12-04T04:26:27.119Z,43.05
2022-12-04T04:28:54.039Z,37.45
2022-12-04T04:31:43.542Z,44.58
2022-12-04T04:34:21.875Z,38.22
2022-12-04T04:36:59.344Z,41.83
2022-12-04T04:39:49.248Z,43.42
2022-12-04T04:42:33.264Z,39.47
2022-12-04T04:45:25.019Z,50.00
2022-12-04T04:48:02.643Z,38.30
2022-12-04T04:50:30.284Z,40.53
2022-12-04T04:53:04.430Z,45.55
2022-12-04T04:55:34.734Z,43.85
2022-12-04T04:58:14.096Z,49.33
2022-12-04T05:00:45.149Z,44.67
2022-12-04T05:03:12.081Z,46.73
2022-12-04T05:05:39.042Z,42.65
2022-12-04T05:08:06.593Z,43.47
2022-12-04T05:10:33.496Z,47.15
2022-12-04T05:13:00.359Z,42.75
2022-12-04T05:15:27.276Z,45.40
2022-12-04T05:17:54.182Z,45.70
2022-12-04T05:20:21.018Z,41.55
2022-12-04T05:22:47.937Z,44.45
2022-12-04T05:25:14.832Z,47.75
2022-12-04T05:27:41.727Z,44.53
2022-12-04T05:30:10.468Z,43.88
2022-12-04T05:32:37.359Z,49.65
2022-12-04T05:35:10.617Z,40.38
2022-12-04T05:37:39.351Z,45.10
2022-12-04T05:40:07.637Z,42.73
2022-12-04T05:42:35.022Z,41.38
2022-12-04T05:45:02.108Z,40.55
2022-12-04T05:47:28.919Z,43.22
2022-12-04T05:49:56.007Z,37.97
2022-12-04T05:52:23.002Z,40.47
2022-12-04T05:54:49.883Z,39.75
2022-12-04T05:57:16.695Z,41.35
2022-12-04T05:59:43.497Z,39.20
2022-12-04T06:02:10.314Z,44.95
2022-12-04T06:04:38.631Z,40.93
2022-12-04T06:07:05.541Z,40.40
2022-12-04T06:09:32.391Z,41.92
2022-12-04T06:11:59.479Z,44.60
2022-12-04T06:14:26.530Z,41.00
2022-12-04T06:16:53.526Z,40.50
2022-12-04T06:19:22.484Z,40.47
2022-12-04T06:21:51.887Z,42.35
2022-12-04T06:24:23.109Z,39.42
2022-12-04T06:27:25.541Z,45.83
2022-12-04T06:29:37.387Z,39.97
2022-12-04T06:32:04.620Z,42.67
2022-12-04T06:34:32.621Z,38.60
2022-12-04T06:36:59.529Z,40.55
2022-12-04T06:39:26.406Z,41.53
2022-12-04T06:41:53.224Z,42.70
2022-12-04T06:44:20.040Z,43.40
2022-12-04T06:46:48.027Z,40.28
2022-12-04T06:49:16.064Z,39.22
2022-12-04T06:51:42.830Z,41.17
2022-12-04T06:54:10.979Z,33.57
2022-12-04T06:56:37.923Z,40.92
2022-12-04T06:59:05.821Z,41.13
2022-12-04T07:01:34.649Z,40.80
2022-12-04T07:04:04.094Z,40.00
2022-12-04T07:06:36.392Z,44.17
2022-12-04T07:09:10.007Z,37.53
2022-12-04T07:11:37.487Z,42.50
2022-12-04T07:14:04.763Z,45.03
2022-12-04T07:16:38.361Z,38.15
2022-12-04T07:19:08.290Z,41.97
2022-12-04T07:21:36.434Z,39.45
2022-12-04T07:24:03.517Z,44.35
2022-12-04T07:26:31.186Z,44.00
2022-12-04T07:28:59.069Z,43.08
2022-12-04T07:31:27.867Z,44.90
2022-12-04T07:33:55.358Z,37.15
2022-12-04T07:36:23.697Z,45.72
2022-12-04T07:38:51.492Z,45.08
2022-12-04T07:41:20.741Z,42.55
2022-12-04T07:43:47.921Z,43.73
2022-12-04T07:46:18.385Z,42.10
2022-12-04T07:48:45.498Z,41.83
2022-12-04T07:51:14.884Z,51.15
2022-12-04T07:53:42.554Z,42.40
2022-12-04T07:56:11.106Z,43.27
2022-12-04T07:58:38.505Z,45.05
2022-12-04T08:01:11.174Z,46.63
2022-12-04T08:03:45.200Z,44.97
2022-12-04T08:06:15.009Z,39.70
2022-12-04T08:08:42.088Z,46.27
2022-12-04T08:11:15.065Z,45.97
2022-12-04T08:13:42.325Z,39.95
2022-12-04T08:16:11.673Z,43.78
2022-12-04T08:18:38.606Z,45.38
2022-12-04T08:21:12.793Z,45.37
2022-12-04T08:23:41.161Z,44.30
2022-12-04T08:26:08.904Z,41.00
2022-12-04T08:28:36.222Z,46.08
2022-12-04T08:31:18.231Z,42.03
2022-12-04T08:33:46.366Z,36.43
2022-12-04T08:36:16.119Z,43.45
2022-12-04T08:38:43.277Z,42.85
2022-12-04T08:41:13.094Z,40.33
2022-12-04T08:43:40.295Z,41.08
2022-12-04T08:46:10.581Z,40.23
2022-12-04T08:48:38.419Z,43.05
2022-12-04T08:51:08.301Z,38.47
2022-12-04T08:53:38.847Z,38.15
2022-12-04T08:56:05.996Z,34.80
2022-12-04T08:58:33.026Z,36.57
2022-12-04T09:01:08.363Z,39.72
2022-12-04T09:03:35.789Z,34.35
2022-12-04T09:06:04.844Z,42.00
2022-12-04T09:08:32.740Z,40.35
2022-12-04T09:11:07.827Z,43.40
2022-12-04T09:13:35.813Z,37.75
2022-12-04T09:16:08.709Z,40.88
2022-12-04T09:18:36.974Z,35.55
2022-12-04T09:21:06.980Z,39.75
2022-12-04T09:23:35.757Z,41.73
2022-12-04T09:26:03.734Z,42.53
2022-12-04T09:28:31.230Z,40.55
2022-12-04T09:31:03.923Z,41.08
2022-12-04T09:33:31.272Z,39.08
2022-12-04T09:36:03.031Z,43.13
2022-12-04T09:38:30.896Z,37.15
2022-12-04T09:41:22.650Z,37.05
2022-12-04T09:43:58.842Z,37.15
2022-12-04T09:46:39.457Z,36.33
2022-12-04T09:49:22.065Z,40.47
2022-12-04T09:51:50.802Z,42.05
2022-12-04T09:54:23.756Z,31.80
2022-12-04T09:57:03.814Z,35.22
2022-12-04T09:59:35.019Z,34.60
2022-12-04T10:02:19.687Z,38.30
2022-12-04T10:04:46.631Z,34.10
2022-12-04T10:07:18.933Z,33.78
2022-12-04T10:09:54.421Z,34.03
2022-12-04T10:12:37.808Z,31.25
2022-12-04T10:15:16.895Z,32.60
2022-12-04T10:18:14.576Z,33.30
2022-12-04T10:20:53.273Z,33.85
2022-12-04T10:23:53.105Z,30.30
2022-12-04T10:26:24.584Z,29.98
2022-12-04T10:28:57.813Z,29.60
2022-12-04T10:31:26.342Z,29.23
2022-12-04T10:33:53.320Z,26.33
2022-12-04T10:36:24.935Z,25.23
2022-12-04T10:38:57.170Z,33.60
2022-12-04T10:41:51.833Z,25.37
2022-12-04T10:44:20.715Z,25.48
2022-12-04T10:46:48.369Z,25.95
2022-12-04T10:49:29.060Z,21.45
2022-12-04T10:51:56.504Z,24.60
2022-12-04T10:54:32.849Z,24.17
2022-12-04T10:57:06.029Z,26.33
2022-12-04T10:59:34.613Z,28.58
2022-12-04T11:02:28.537Z,32.00
2022-12-04T11:05:01.926Z,21.27
2022-12-04T11:07:32.427Z,24.47
2022-12-04T11:10:21.522Z,24.52
2022-12-04T11:13:06.180Z,24.20
2022-12-04T11:15:42.897Z,21.42
2022-12-04T11:18:17.979Z,21.13
2022-12-04T11:21:07.916Z,22.50
2022-12-04T11:23:42.857Z,22.23
2022-12-04T11:26:11.031Z,21.17
2022-12-04T11:28:42.330Z,26.63
2022-12-04T11:31:16.694Z,26.65
2022-12-04T11:33:48.382Z,18.13
2022-12-04T11:36:24.009Z,19.52
2022-12-04T11:39:04.824Z,19.98
2022-12-04T11:41:33.187Z,23.08
2022-12-04T11:44:01.078Z,19.63
2022-12-04T11:46:36.038Z,21.90
2022-12-04T11:49:04.452Z,21.25
2022-12-04T11:52:02.453Z,22.35
2022-12-04T11:54:48.534Z,18.83
2022-12-04T11:57:37.934Z,17.77
2022-12-04T12:00:19.039Z,19.43
2022-12-04T12:03:10.434Z,17.17
2022-12-04T12:06:08.475Z,18.48
2022-12-04T12:09:09.308Z,19.15
2022-12-04T12:11:42.311Z,19.08
2022-12-04T12:14:17.557Z,19.43
2022-12-04T12:16:59.403Z,19.35
2022-12-04T12:19:57.181Z,21.10
2022-12-04T12:22:42.812Z,15.10
2022-12-04T12:25:27.010Z,18.20
2022-12-04T12:28:18.132Z,17.33
2022-12-04T12:31:10.127Z,17.27
2022-12-04T12:34:01.434Z,14.13
2022-12-04T12:36:38.793Z,15.07
2022-12-04T12:39:16.673Z,17.35
2022-12-04T12:41:49.481Z,17.77
2022-12-04T12:44:58.165Z,18.17
2022-12-04T12:47:31.159Z,17.77
2022-12-04T12:50:36.613Z,14.07
2022-12-04T12:53:13.598Z,14.98
2022-12-04T12:55:46.123Z,21.77
2022-12-04T12:58:57.459Z,15.80
2022-12-04T13:01:45.938Z,18.58
2022-12-04T13:04:37.540Z,19.15
2022-12-04T13:07:27.629Z,19.33
2022-12-04T13:10:17.301Z,18.00
2022-12-04T13:12:49.874Z,15.05
2022-12-04T13:15:20.598Z,16.20
2022-12-04T13:17:49.905Z,16.40
2022-12-04T13:20:28.958Z,15.13
2022-12-04T13:23:23.588Z,17.87
2022-12-04T13:26:10.473Z,17.05
2022-12-04T13:28:40.281Z,20.00
2022-12-04T13:31:19.306Z,16.83
2022-12-04T13:34:07.716Z,17.55
2022-12-04T13:36:52.760Z,18.23
2022-12-04T13:39:31.826Z,19.02
2022-12-04T13:42:02.636Z,14.85
2022-12-04T13:44:31.880Z,19.13
2022-12-04T13:47:10.170Z,17.23
2022-12-04T13:49:42.464Z,20.67
2022-12-04T13:52:40.977Z,15.32
2022-12-04T13:55:28.241Z,15.57
2022-12-04T13:58:01.236Z,18.25
2022-12-04T14:00:35.291Z,18.80
2022-12-04T14:03:21.611Z,16.43
2022-12-04T14:05:48.884Z,20.58
2022-12-04T14:08:25.507Z,20.60
2022-12-04T14:11:15.239Z,20.02
2022-12-04T14:13:52.517Z,21.83
2022-12-04T14:16:41.192Z,18.40
2022-12-04T14:19:09.136Z,19.45
2022-12-04T14:21:44.626Z,19.15
2022-12-04T14:24:25.609Z,21.23
2022-12-04T14:27:11.327Z,20.20
2022-12-04T14:29:49.700Z,21.20
2022-12-04T14:32:24.638Z,23.00
2022-12-04T14:34:52.051Z,23.67
2022-12-04T14:37:44.660Z,22.15
2022-12-04T14:40:27.215Z,24.83
2022-12-04T14:42:55.065Z,27.87
2022-12-04T14:45:43.902Z,28.13
2022-12-04T14:48:29.045Z,24.00
2022-12-04T14:51:12.807Z,22.98
2022-12-04T14:54:11.894Z,25.95
2022-12-04T14:56:50.774Z,25.67
2022-12-04T14:59:21.359Z,29.95
2022-12-04T15:01:52.123Z,31.23
2022-12-04T15:04:33.178Z,23.67
2022-12-04T15:07:01.036Z,34.88
2022-12-04T15:09:47.332Z,27.83
2022-12-04T15:12:37.656Z,28.60
2022-12-04T15:15:26.672Z,28.15
2022-12-04T15:18:15.181Z,29.42
2022-12-04T15:20:56.732Z,30.00
2022-12-04T15:23:37.474Z,28.67
2022-12-04T15:26:15.744Z,26.33
2022-12-04T15:28:45.514Z,32.58
2022-12-04T15:31:29.816Z,30.48
2022-12-04T15:34:01.432Z,34.17
2022-12-04T15:36:28.222Z,30.87
2022-12-04T15:38:55.716Z,30.20
2022-12-04T15:41:34.480Z,30.20
2022-12-04T15:44:03.820Z,28.42
2022-12-04T15:46:34.370Z,25.67
2022-12-04T15:49:29.133Z,30.77
2022-12-04T15:52:11.319Z,30.75
2022-12-04T15:54:43.693Z,30.92
2022-12-04T15:57:37.072Z,28.77
2022-12-04T16:00:07.411Z,33.33
2022-12-04T16:02:41.814Z,28.17
2022-12-04T16:05:20.932Z,28.77
2022-12-04T16:07:53.480Z,30.25
2022-12-04T16:10:29.921Z,25.60
2022-12-04T16:13:01.017Z,31.15
2022-12-04T16:15:44.047Z,30.00
2022-12-04T16:18:14.212Z,25.52
2022-12-04T16:20:41.585Z,26.90
2022-12-04T16:23:09.994Z,32.75
2022-12-04T16:25:37.335Z,30.88
2022-12-04T16:28:04.449Z,32.37
2022-12-04T16:30:34.243Z,28.65
2022-12-04T16:33:01.498Z,30.83
2022-12-04T16:35:30.628Z,32.03
2022-12-04T16:37:57.673Z,32.08
2022-12-04T16:40:24.562Z,27.67
2022-12-04T16:42:51.424Z,29.85
2022-12-04T16:45:22.194Z,25.77
2022-12-04T16:47:49.537Z,32.80
2022-12-04T16:50:17.153Z,30.63
2022-12-04T16:52:44.176Z,32.83
2022-12-04T16:55:19.144Z,30.15
2022-12-04T16:57:46.508Z,30.17
2022-12-04T17:00:15.708Z,29.67
2022-12-04T17:02:43.336Z,31.92
2022-12-04T17:05:20.606Z,28.77
2022-12-04T17:07:53.897Z,31.05
2022-12-04T17:10:24.329Z,29.58
2022-12-04T17:13:00.441Z,29.25
2022-12-04T17:15:27.713Z,23.25
2022-12-04T17:17:54.815Z,34.20
2022-12-04T17:20:22.331Z,30.23
2022-12-04T17:22:49.758Z,28.00
2022-12-04T17:25:20.307Z,27.00
2022-12-04T17:27:48.027Z,31.17
2022-12-04T17:30:16.974Z,27.07
2022-12-04T17:32:43.922Z,27.33
2022-12-04T17:35:12.756Z,26.85
2022-12-04T17:37:39.800Z,27.80
2022-12-04T17:40:08.010Z,27.95
2022-12-04T17:42:35.182Z,27.17
2022-12-04T17:45:02.484Z,27.25
2022-12-04T17:47:34.582Z,28.27
2022-12-04T17:50:01.800Z,26.08
2022-12-04T17:52:32.795Z,21.58
2022-12-04T17:54:59.914Z,28.33
2022-12-04T17:57:27.994Z,20.80
2022-12-04T17:59:54.975Z,24.40
2022-12-04T18:02:21.911Z,27.90
2022-12-04T18:04:49.021Z,28.42
2022-12-04T18:07:16.037Z,21.37
2022-12-04T18:09:42.943Z,23.98
2022-12-04T18:12:09.946Z,27.00
2022-12-04T18:14:37.335Z,25.10
2022-12-04T18:17:04.634Z,25.30
2022-12-04T18:19:32.491Z,23.53
2022-12-04T18:22:00.016Z,23.38
2022-12-04T18:24:27.988Z,25.50
2022-12-04T18:26:54.903Z,25.13
2022-12-04T18:29:26.575Z,23.90
2022-12-04T18:34:38.481Z,27.50
2022-12-04T18:37:05.664Z,33.00
2022-12-04T18:39:32.579Z,27.10
2022-12-04T18:42:00.177Z,32.17
2022-12-04T18:44:27.216Z,34.40
2022-12-04T18:46:54.143Z,28.65
2022-12-04T18:49:21.165Z,32.47
2022-12-04T18:51:50.005Z,33.22
2022-12-04T18:54:29.073Z,29.33
2022-12-04T18:56:56.020Z,32.03
2022-12-04T18:59:25.762Z,30.35
2022-12-04T19:01:54.342Z,31.48
2022-12-04T19:04:23.517Z,23.02
2022-12-04T19:06:53.868Z,28.30
2022-12-04T19:09:40.740Z,31.30
2022-12-04T19:12:11.904Z,33.75
2022-12-04T19:14:40.186Z,30.17
2022-12-04T19:17:07.927Z,36.25
2022-12-04T19:19:35.023Z,34.88
2022-12-04T19:22:02.545Z,29.70
2022-12-04T19:24:29.574Z,37.45
2022-12-04T19:26:56.556Z,35.13
2022-12-04T19:29:23.810Z,39.17
2022-12-04T19:31:54.609Z,38.22
2022-12-04T19:34:24.569Z,32.97
2022-12-04T19:36:54.691Z,35.28
2022-12-04T19:39:21.524Z,35.30
2022-12-04T19:41:48.996Z,41.20
2022-12-04T19:44:47.409Z,35.03
2022-12-04T19:47:03.710Z,40.03
2022-12-04T19:49:30.708Z,32.92
2022-12-04T19:51:58.318Z,32.25
2022-12-04T19:54:26.327Z,37.53
2022-12-04T19:56:53.223Z,34.05
2022-12-04T19:59:20.776Z,35.57
2022-12-04T20:01:48.364Z,36.75
2022-12-04T20:04:15.844Z,34.17
2022-12-04T20:06:45.636Z,34.63
2022-12-04T20:09:20.496Z,40.47
2022-12-04T20:11:48.031Z,42.60
2022-12-04T20:14:15.464Z,37.88
2022-12-04T20:16:43.306Z,40.50
2022-12-04T20:19:15.217Z,35.75
2022-12-04T20:21:43.304Z,39.00
2022-12-04T20:24:13.971Z,33.77
2022-12-04T20:26:43.197Z,35.13
2022-12-04T20:29:13.318Z,31.85
2022-12-04T20:31:42.363Z,33.97
2022-12-04T20:34:13.518Z,36.22
2022-12-04T20:36:45.019Z,33.90
2022-12-04T20:39:13.999Z,33.05
2022-12-04T20:41:41.595Z,38.40
2022-12-04T20:44:12.482Z,35.58
2022-12-04T20:46:40.525Z,40.63
2022-12-04T20:49:10.711Z,39.27
2022-12-04T20:51:41.292Z,35.30
2022-12-04T20:54:11.418Z,31.02
2022-12-04T20:56:38.828Z,40.00
2022-12-04T20:59:12.715Z,35.97
2022-12-04T21:01:40.474Z,32.73
2022-12-04T21:04:08.007Z,37.05
2022-12-04T21:06:38.547Z,39.33
2022-12-04T21:09:14.548Z,36.10
2022-12-04T21:11:44.295Z,37.17
2022-12-04T21:14:32.566Z,41.50
2022-12-04T21:16:59.894Z,40.47
2022-12-04T21:19:27.157Z,34.35
2022-12-04T21:21:54.394Z,36.97
2022-12-04T21:24:23.646Z,35.47
2022-12-04T21:26:50.475Z,37.70
2022-12-04T21:29:17.341Z,38.45
2022-12-04T21:31:44.744Z,38.72
2022-12-04T21:34:15.943Z,36.72
2022-12-04T21:36:43.710Z,36.70
2022-12-04T21:39:11.045Z,38.70
2022-12-04T21:41:56.609Z,37.22
2022-12-04T21:44:24.062Z,37.53
2022-12-04T21:46:51.340Z,34.38
2022-12-04T21:49:19.693Z,37.83
2022-12-04T21:52:02.335Z,35.37
2022-12-04T21:54:29.820Z,40.72
2022-12-04T21:56:57.922Z,36.45
2022-12-04T21:59:26.487Z,39.20
2022-12-04T22:01:53.778Z,33.63
2022-12-04T22:04:21.745Z,36.20
2022-12-04T22:06:48.822Z,37.03
2022-12-04T22:09:15.840Z,32.10
2022-12-04T22:11:43.341Z,38.35
2022-12-04T22:14:11.122Z,38.72
2022-12-04T22:16:42.301Z,36.53
2022-12-04T22:19:13.250Z,37.13
2022-12-04T22:21:40.514Z,31.75
2022-12-04T22:24:08.436Z,33.75
2022-12-04T22:26:36.213Z,38.30
2022-12-04T22:29:20.733Z,36.50
2022-12-04T22:31:51.424Z,32.42
2022-12-04T22:34:18.532Z,33.15
2022-12-04T22:36:45.839Z,34.90
2022-12-04T22:39:12.857Z,38.78
2022-12-04T22:41:40.070Z,32.33
2022-12-04T22:44:07.941Z,29.48
2022-12-04T22:46:34.976Z,32.85
2022-12-04T22:49:02.250Z,32.78
2022-12-04T22:51:29.273Z,35.17
2022-12-04T22:53:59.765Z,31.00
2022-12-04T22:56:32.041Z,30.92
2022-12-04T22:58:59.678Z,31.55
2022-12-04T23:01:34.114Z,36.60
2022-12-04T23:04:02.927Z,38.13
2022-12-04T23:06:32.004Z,34.30
2022-12-04T23:09:14.262Z,32.60
2022-12-04T23:11:41.956Z,32.10
2022-12-04T23:14:13.078Z,32.00
2022-12-04T23:16:40.242Z,33.75
2022-12-04T23:19:08.757Z,33.40
2022-12-04T23:21:35.688Z,35.40
2022-12-04T23:24:02.785Z,39.70
2022-12-04T23:26:39.419Z,32.33
2022-12-04T23:29:23.307Z,31.50
2022-12-04T23:31:54.555Z,34.07
2022-12-04T23:34:21.443Z,33.60
2022-12-04T23:36:48.287Z,30.95
2022-12-04T23:39:15.137Z,29.73
2022-12-04T23:41:41.970Z,31.80
2022-12-04T23:44:08.868Z,31.47
2022-12-04T23:46:35.852Z,30.00
2022-12-04T23:49:03.300Z,25.13
2022-12-04T23:51:30.581Z,29.00
2022-12-04T23:53:57.485Z,32.70
2022-12-04T23:56:26.575Z,29.37
2022-12-04T23:58:55.799Z,31.38
